Time;durP1;ratioP1;P1;durP2;ratioP2;P2;SDS_P1;SDS_P2;PMS_P1;PMS_P2;Temp;Humidity;BMP_temperature;BMP_pressure;BME280_temperature;BME280_humidity;BME280_pressure;Samples;Min_cycle;Max_cycle;Signal;HPM_P1;HPM_P2
2022/06/06 00:00:25;;;;;;;14.27;8.00;;;;;;;;;;4975621;28;20027;-91
2022/06/06 00:03:04;;;;;;;12.45;8.18;;;;;;;;;;4977486;28;20031;-92
2022/06/06 00:05:39;;;;;;;11.80;8.43;;;;;;;;;;4975854;28;20137;-91
2022/06/06 00:08:15;;;;;;;12.35;8.60;;;;;;;;;;4975616;28;20027;-91
2022/06/06 00:10:44;;;;;;;13.90;9.30;;;;;;;;;;4974606;28;20031;-92
2022/06/06 00:13:13;;;;;;;14.65;9.13;;;;;;;;;;4973985;28;20492;-91
2022/06/06 00:15:54;;;;;;;13.45;9.35;;;;;;;;;;4975165;28;20027;-92
2022/06/06 00:18:26;;;;;;;16.02;9.73;;;;;;;;;;4976156;28;20168;-92
2022/06/06 00:20:52;;;;;;;12.82;8.75;;;;;;;;;;4974950;28;20069;-92
2022/06/06 00:23:19;;;;;;;16.85;9.50;;;;;;;;;;4973631;28;20430;-91
2022/06/06 00:25:45;;;;;;;18.73;10.35;;;;;;;;;;4975171;28;20081;-91
2022/06/06 00:28:11;;;;;;;13.40;9.00;;;;;;;;;;4973059;28;20493;-91
2022/06/06 00:30:40;;;;;;;17.23;9.43;;;;;;;;;;4972723;28;20030;-91
2022/06/06 00:36:09;;;;;;;18.55;10.55;;;;;;;;;;4974230;28;20049;-91
2022/06/06 00:38:37;;;;;;;14.30;9.98;;;;;;;;;;4974287;28;20477;-91
2022/06/06 00:41:08;;;;;;;16.30;10.23;;;;;;;;;;4973881;28;20023;-91
2022/06/06 00:43:37;;;;;;;17.52;10.98;;;;;;;;;;4975047;28;20041;-91
2022/06/06 00:46:03;;;;;;;16.83;10.48;;;;;;;;;;4981437;28;20511;-90
2022/06/06 00:48:52;;;;;;;19.00;11.07;;;;;;;;;;4978183;28;20145;-91
2022/06/06 00:51:18;;;;;;;18.55;12.18;;;;;;;;;;4981369;28;20045;-90
2022/06/06 00:54:06;;;;;;;14.80;11.05;;;;;;;;;;4975870;28;20110;-89
2022/06/06 00:56:41;;;;;;;17.70;11.13;;;;;;;;;;4958759;28;20031;-89
2022/06/06 00:59:21;;;;;;;15.15;10.52;;;;;;;;;;4971064;28;20031;-89
2022/06/06 01:01:49;;;;;;;15.32;10.23;;;;;;;;;;4990827;28;20027;-90
2022/06/06 01:04:16;;;;;;;15.68;10.02;;;;;;;;;;4974486;28;20150;-90
2022/06/06 01:06:45;;;;;;;21.73;11.57;;;;;;;;;;4975327;28;20027;-90
2022/06/06 01:09:11;;;;;;;18.95;10.90;;;;;;;;;;4969192;28;20035;-91
2022/06/06 01:11:41;;;;;;;21.60;11.85;;;;;;;;;;4965021;28;20046;-90
2022/06/06 01:14:09;;;;;;;17.25;11.40;;;;;;;;;;4976031;28;20030;-90
2022/06/06 01:16:40;;;;;;;19.70;12.38;;;;;;;;;;4976929;28;20034;-90
2022/06/06 01:19:19;;;;;;;15.57;11.20;;;;;;;;;;4971711;28;20063;-89
2022/06/06 01:22:02;;;;;;;15.68;11.07;;;;;;;;;;4975587;28;20062;-89
2022/06/06 01:24:37;;;;;;;19.20;12.10;;;;;;;;;;4975797;28;20122;-90
2022/06/06 01:27:33;;;;;;;21.92;12.32;;;;;;;;;;4975694;28;20057;-88
2022/06/06 01:30:07;;;;;;;15.75;8.45;;;;;;;;;;4972346;28;20034;-90
2022/06/06 01:32:42;;;;;;;19.48;12.63;;;;;;;;;;4972769;28;20023;-91
2022/06/06 01:35:08;;;;;;;21.98;12.63;;;;;;;;;;4963699;28;20059;-91
2022/06/06 01:40:50;;;;;;;;;;;;;;;;;;;;;
2022/06/06 01:43:21;;;;;;;17.55;11.35;;;;;;;;;;4983182;28;20094;-92
2022/06/06 01:45:47;;;;;;;;;;;;;;;;;;4982535;28;20035;-91
2022/06/06 01:48:43;;;;;;;18.52;11.88;;;;;;;;;;4982559;28;19906;-92
2022/06/06 01:54:20;;;;;;;24.70;11.63;;;;;;;;;;4987855;28;20034;-92
2022/06/06 01:56:46;;;;;;;17.20;11.73;;;;;;;;;;4991673;28;20019;-91
2022/06/06 01:59:12;;;;;;;20.13;11.48;;;;;;;;;;4983466;28;20070;-92
2022/06/06 02:01:38;;;;;;;14.85;11.27;;;;;;;;;;4980359;28;20113;-92
2022/06/06 02:04:05;;;;;;;17.35;11.23;;;;;;;;;;4979369;28;20086;-91
2022/06/06 02:06:31;;;;;;;19.55;11.68;;;;;;;;;;4980763;28;20106;-92
2022/06/06 02:08:57;;;;;;;15.70;10.98;;;;;;;;;;4979637;28;20074;-92
2022/06/06 02:11:52;;;;;;;18.20;11.63;;;;;;;;;;4981471;28;20029;-91
2022/06/06 02:14:21;;;;;;;18.38;11.98;;;;;;;;;;4966366;28;20138;-91
2022/06/06 02:16:47;;;;;;;19.10;11.02;;;;;;;;;;4984762;28;20023;-91
2022/06/06 02:19:27;;;;;;;21.15;12.35;;;;;;;;;;4979360;28;20042;-91
2022/06/06 02:21:55;;;;;;;17.48;11.52;;;;;;;;;;4977476;28;20058;-91
2022/06/06 02:24:21;;;;;;;22.17;12.07;;;;;;;;;;4978672;28;20480;-92
2022/06/06 02:26:47;;;;;;;17.70;11.38;;;;;;;;;;4983807;28;20027;-92
2022/06/06 02:29:13;;;;;;;17.88;11.38;;;;;;;;;;4990805;28;20027;-93
2022/06/06 02:31:39;;;;;;;18.60;11.65;;;;;;;;;;4986030;28;20033;-92
2022/06/06 02:34:06;;;;;;;16.33;10.48;;;;;;;;;;4978675;28;20574;-92
2022/06/06 02:36:32;;;;;;;17.80;12.15;;;;;;;;;;4976956;28;20031;-90
2022/06/06 02:38:58;;;;;;;14.00;10.20;;;;;;;;;;4974910;28;20034;-90
2022/06/06 02:41:26;;;;;;;14.55;10.63;;;;;;;;;;4974061;28;20030;-91
2022/06/06 02:43:52;;;;;;;16.23;10.18;;;;;;;;;;4980080;28;20030;-91
2022/06/06 02:46:19;;;;;;;18.05;10.35;;;;;;;;;;4997258;28;20035;-92
2022/06/06 02:48:45;;;;;;;15.85;10.25;;;;;;;;;;4989604;28;20121;-91
2022/06/06 02:51:12;;;;;;;12.30;9.63;;;;;;;;;;4975492;28;20031;-91
2022/06/06 02:53:46;;;;;;;13.25;9.93;;;;;;;;;;4975408;28;20053;-91
2022/06/06 02:56:12;;;;;;;16.80;9.57;;;;;;;;;;4974490;28;20118;-90
2022/06/06 02:58:38;;;;;;;15.65;10.20;;;;;;;;;;4975412;28;20850;-91
2022/06/06 03:01:06;;;;;;;16.75;10.20;;;;;;;;;;4973814;28;20030;-90
2022/06/06 03:03:32;;;;;;;14.15;9.65;;;;;;;;;;4976962;28;20032;-92
2022/06/06 03:06:17;;;;;;;19.30;10.10;;;;;;;;;;4978026;28;20031;-91
2022/06/06 03:08:46;;;;;;;15.55;10.15;;;;;;;;;;4978184;28;20493;-92
2022/06/06 03:11:26;;;;;;;14.77;9.95;;;;;;;;;;4977066;28;20105;-91
2022/06/06 03:13:52;;;;;;;16.20;10.00;;;;;;;;;;4978028;28;20035;-91
2022/06/06 03:22:36;;;;;;;20.60;10.40;;;;;;;;;;4976292;28;20038;-91
2022/06/06 03:25:16;;;;;;;13.95;9.02;;;;;;;;;;4974415;28;20031;-91
2022/06/06 03:27:42;;;;;;;12.55;9.70;;;;;;;;;;4977546;28;20031;-91
2022/06/06 03:30:20;;;;;;;16.23;10.45;;;;;;;;;;4980121;28;20288;-91
2022/06/06 03:32:46;;;;;;;15.68;9.68;;;;;;;;;;4974840;28;20027;-91
2022/06/06 03:35:14;;;;;;;12.75;9.30;;;;;;;;;;4976283;28;20027;-92
2022/06/06 03:37:59;;;;;;;12.50;8.57;;;;;;;;;;4975950;28;20023;-92
2022/06/06 03:40:47;;;;;;;15.02;9.27;;;;;;;;;;4976199;28;20127;-90
2022/06/06 03:43:14;;;;;;;13.93;8.82;;;;;;;;;;4979614;28;20037;-93
2022/06/06 03:45:43;;;;;;;12.82;8.45;;;;;;;;;;4980168;28;20489;-92
2022/06/06 03:48:30;;;;;;;14.07;8.40;;;;;;;;;;4976651;28;20030;-91
2022/06/06 03:51:23;;;;;;;14.05;9.18;;;;;;;;;;4974616;28;20037;-93
2022/06/06 03:53:53;;;;;;;11.02;8.70;;;;;;;;;;4977827;28;20035;-92
2022/06/06 03:56:29;;;;;;;11.80;8.30;;;;;;;;;;4975750;28;20034;-91
2022/06/06 03:58:57;;;;;;;15.10;8.90;;;;;;;;;;4974478;28;20027;-91
2022/06/06 04:01:24;;;;;;;14.02;8.68;;;;;;;;;;4974432;28;20027;-91
2022/06/06 04:03:53;;;;;;;14.15;8.88;;;;;;;;;;4974494;28;20779;-91
2022/06/06 04:06:20;;;;;;;11.68;8.07;;;;;;;;;;4976581;28;20035;-91
2022/06/06 04:08:46;;;;;;;12.93;8.23;;;;;;;;;;4987899;28;20052;-91
2022/06/06 04:11:44;;;;;;;14.13;7.75;;;;;;;;;;4988671;28;20208;-91
2022/06/06 04:14:22;;;;;;;14.70;8.75;;;;;;;;;;4985163;28;20035;-91
2022/06/06 04:16:48;;;;;;;10.88;7.75;;;;;;;;;;4986409;28;20051;-91
2022/06/06 04:19:24;;;;;;;10.80;7.63;;;;;;;;;;4979931;28;20030;-90
2022/06/06 04:21:56;;;;;;;13.63;8.18;;;;;;;;;;4978742;28;20026;-90
2022/06/06 04:24:28;;;;;;;13.82;7.80;;;;;;;;;;4977927;28;20090;-91
2022/06/06 04:27:02;;;;;;;12.75;7.35;;;;;;;;;;4979843;28;20488;-91
2022/06/06 04:29:28;;;;;;;9.65;7.03;;;;;;;;;;4980725;28;20039;-90
2022/06/06 04:31:57;;;;;;;10.57;7.63;;;;;;;;;;4996712;28;20025;-92
2022/06/06 04:34:30;;;;;;;10.95;7.10;;;;;;;;;;4993254;28;20046;-90
2022/06/06 04:37:02;;;;;;;10.90;6.78;;;;;;;;;;4978519;28;20023;-91
2022/06/06 04:39:37;;;;;;;11.80;7.13;;;;;;;;;;4976636;28;20030;-91
2022/06/06 04:42:25;;;;;;;11.82;7.82;;;;;;;;;;4978297;28;20031;-88
2022/06/06 04:44:54;;;;;;;11.10;7.18;;;;;;;;;;4983778;28;20465;-91
2022/06/06 04:47:37;;;;;;;13.95;7.43;;;;;;;;;;4980645;28;20035;-91
2022/06/06 04:50:07;;;;;;;11.32;7.32;;;;;;;;;;4980612;28;20027;-89
2022/06/06 04:52:34;;;;;;;12.13;6.57;;;;;;;;;;4988669;28;20038;-92
2022/06/06 04:55:01;;;;;;;8.70;7.20;;;;;;;;;;4984100;28;20038;-90
2022/06/06 04:57:27;;;;;;;16.38;7.40;;;;;;;;;;4977400;28;20034;-90
2022/06/06 04:59:56;;;;;;;12.57;6.60;;;;;;;;;;4977078;28;20033;-90
2022/06/06 05:02:23;;;;;;;9.60;6.82;;;;;;;;;;4976695;28;20042;-90
2022/06/06 05:04:49;;;;;;;8.70;6.15;;;;;;;;;;4977411;28;20038;-91
2022/06/06 05:07:26;;;;;;;11.27;5.93;;;;;;;;;;4979092;28;20027;-90
2022/06/06 05:10:10;;;;;;;9.35;6.68;;;;;;;;;;4981213;28;20038;-90
2022/06/06 05:12:37;;;;;;;9.18;6.15;;;;;;;;;;4975829;28;20564;-90
2022/06/06 05:15:07;;;;;;;8.25;6.45;;;;;;;;;;4977955;28;20035;-90
2022/06/06 05:17:51;;;;;;;9.25;6.57;;;;;;;;;;4977443;28;20030;-90
2022/06/06 05:20:36;;;;;;;10.55;6.07;;;;;;;;;;4961794;28;20481;-90
2022/06/06 05:23:20;;;;;;;9.65;7.00;;;;;;;;;;4977706;28;20113;-90
2022/06/06 05:26:06;;;;;;;11.02;6.68;;;;;;;;;;4976956;28;20097;-89
2022/06/06 05:28:47;;;;;;;8.20;5.68;;;;;;;;;;4975759;28;20142;-90
2022/06/06 05:31:22;;;;;;;10.70;6.97;;;;;;;;;;4975013;28;20023;-90
2022/06/06 05:33:51;;;;;;;9.93;6.40;;;;;;;;;;4975822;28;20087;-90
2022/06/06 05:36:17;;;;;;;13.60;6.75;;;;;;;;;;4975684;28;20034;-89
2022/06/06 05:39:13;;;;;;;9.50;6.60;;;;;;;;;;4975629;28;20022;-91
2022/06/06 05:41:51;;;;;;;10.82;6.72;;;;;;;;;;4964733;28;20065;-90
2022/06/06 05:44:29;;;;;;;18.25;7.70;;;;;;;;;;4978005;28;20045;-90
2022/06/06 05:47:00;;;;;;;8.43;5.80;;;;;;;;;;4976476;28;20106;-90
2022/06/06 05:49:45;;;;;;;10.75;6.53;;;;;;;;;;4976814;28;20641;-91
2022/06/06 05:52:11;;;;;;;8.90;6.72;;;;;;;;;;4976670;28;20031;-92
2022/06/06 05:54:46;;;;;;;8.98;6.25;;;;;;;;;;4978166;28;20740;-91
2022/06/06 05:57:30;;;;;;;9.20;7.07;;;;;;;;;;4985027;28;20071;-91
2022/06/06 05:59:56;;;;;;;15.43;7.03;;;;;;;;;;4995682;28;20045;-90
2022/06/06 06:02:34;;;;;;;11.45;6.32;;;;;;;;;;4980262;28;20027;-91
2022/06/06 06:05:01;;;;;;;10.18;6.97;;;;;;;;;;4976099;28;20027;-91
2022/06/06 06:07:34;;;;;;;9.07;7.07;;;;;;;;;;4977225;28;20027;-91
2022/06/06 06:10:04;;;;;;;8.00;5.97;;;;;;;;;;4976401;28;20038;-91
2022/06/06 06:12:57;;;;;;;7.82;6.55;;;;;;;;;;4984512;28;20370;-90
2022/06/06 06:15:29;;;;;;;8.88;6.32;;;;;;;;;;5005498;28;20049;-91
2022/06/06 06:17:56;;;;;;;9.00;7.20;;;;;;;;;;4994471;28;20138;-91
2022/06/06 06:20:32;;;;;;;11.15;7.45;;;;;;;;;;4966608;28;20038;-91
2022/06/06 06:23:08;;;;;;;10.63;7.13;;;;;;;;;;4984739;28;20033;-90
2022/06/06 06:25:42;;;;;;;14.13;7.32;;;;;;;;;;4994574;28;20031;-90
2022/06/06 06:28:10;;;;;;;11.52;6.85;;;;;;;;;;4987219;28;20031;-90
2022/06/06 06:30:57;;;;;;;8.82;7.30;;;;;;;;;;4977145;28;20030;-90
2022/06/06 06:33:26;;;;;;;10.35;6.88;;;;;;;;;;4975394;28;20038;-90
2022/06/06 06:36:04;;;;;;;12.32;6.63;;;;;;;;;;4975094;28;20037;-90
2022/06/06 06:38:36;;;;;;;11.05;7.03;;;;;;;;;;4974546;28;20074;-91
2022/06/06 06:41:18;;;;;;;9.15;6.60;;;;;;;;;;4967965;28;20019;-91
2022/06/06 06:44:00;;;;;;;11.07;7.22;;;;;;;;;;4956571;29;20023;-90
2022/06/06 06:46:29;;;;;;;10.10;7.00;;;;;;;;;;4965346;28;20035;-90
2022/06/06 06:49:04;;;;;;;7.30;6.60;;;;;;;;;;4969238;28;20162;-90
2022/06/06 06:51:30;;;;;;;7.13;5.70;;;;;;;;;;4974781;28;20026;-90
2022/06/06 06:54:05;;;;;;;9.95;5.95;;;;;;;;;;4979544;28;20037;-91
2022/06/06 06:56:41;;;;;;;8.88;6.18;;;;;;;;;;5276601;23;20021;-91
2022/06/06 06:59:16;;;;;;;7.25;5.82;;;;;;;;;;4957647;29;20043;-90
2022/06/06 07:10:19;;;;;;;;;;;;;;;;;;4976146;28;20401;-89
2022/06/06 07:12:45;;;;;;;8.25;6.40;;;;;;;;;;4974284;28;19906;-88
2022/06/06 07:15:49;;;;;;;9.73;7.05;;;;;;;;;;4986266;28;20039;-88
2022/06/06 07:18:19;;;;;;;8.57;6.10;;;;;;;;;;4975688;28;20062;-89
2022/06/06 07:20:46;;;;;;;10.15;6.28;;;;;;;;;;4992746;28;20109;-89
2022/06/06 07:23:14;;;;;;;8.65;6.10;;;;;;;;;;4998214;28;20463;-89
2022/06/06 07:25:51;;;;;;;6.72;6.03;;;;;;;;;;5013983;28;20381;-89
2022/06/06 07:28:18;;;;;;;8.90;6.03;;;;;;;;;;5013820;28;20025;-89
2022/06/06 07:30:59;;;;;;;13.93;6.15;;;;;;;;;;4998613;28;20548;-89
2022/06/06 07:33:32;;;;;;;8.18;6.05;;;;;;;;;;4999191;28;20666;-90
2022/06/06 07:36:04;;;;;;;8.82;5.78;;;;;;;;;;5001875;28;20053;-90
2022/06/06 07:38:42;;;;;;;9.52;6.28;;;;;;;;;;4992949;28;20038;-89
2022/06/06 07:41:11;;;;;;;6.28;5.18;;;;;;;;;;4996348;28;20026;-89
2022/06/06 07:43:56;;;;;;;10.48;6.03;;;;;;;;;;5001980;28;20022;-88
2022/06/06 07:46:25;;;;;;;6.60;5.82;;;;;;;;;;4997947;28;20039;-88
2022/06/06 07:48:51;;;;;;;10.90;5.70;;;;;;;;;;5003596;28;20039;-89
2022/06/06 07:51:20;;;;;;;6.45;5.25;;;;;;;;;;5009978;28;20565;-88
2022/06/06 07:53:55;;;;;;;8.43;6.03;;;;;;;;;;5011811;28;20119;-88
2022/06/06 07:56:21;;;;;;;6.05;5.25;;;;;;;;;;5011999;28;20030;-87
2022/06/06 07:58:55;;;;;;;5.38;4.70;;;;;;;;;;5006903;28;20019;-88
2022/06/06 08:01:25;;;;;;;5.63;5.00;;;;;;;;;;5010407;28;20018;-88
2022/06/06 08:04:09;;;;;;;10.55;4.68;;;;;;;;;;5008983;28;20010;-88
2022/06/06 08:06:53;;;;;;;8.75;4.45;;;;;;;;;;5006062;28;20558;-87
2022/06/06 08:09:37;;;;;;;7.95;4.28;;;;;;;;;;5013171;28;20071;-88
2022/06/06 08:12:13;;;;;;;8.85;4.40;;;;;;;;;;4993477;28;20104;-88
2022/06/06 08:14:45;;;;;;;6.72;4.30;;;;;;;;;;4992984;28;20034;-88
2022/06/06 08:20:28;;;;;;;9.27;4.30;;;;;;;;;;5014779;28;20495;-86
2022/06/06 08:22:59;;;;;;;9.63;4.50;;;;;;;;;;5032772;28;20106;-88
2022/06/06 08:25:25;;;;;;;5.20;4.20;;;;;;;;;;5011544;28;20022;-88
2022/06/06 08:27:52;;;;;;;4.97;3.25;;;;;;;;;;5012461;28;20068;-87
2022/06/06 08:30:19;;;;;;;6.25;4.25;;;;;;;;;;5011314;28;20038;-87
2022/06/06 08:32:49;;;;;;;6.13;3.92;;;;;;;;;;5011764;28;20022;-88
2022/06/06 08:35:18;;;;;;;5.35;4.20;;;;;;;;;;5011560;28;20060;-89
2022/06/06 08:37:47;;;;;;;5.43;4.13;;;;;;;;;;5010882;28;20026;-88
2022/06/06 08:40:19;;;;;;;5.60;3.65;;;;;;;;;;5010922;28;20022;-88
2022/06/06 08:42:48;;;;;;;11.00;3.90;;;;;;;;;;5011376;28;20037;-89
2022/06/06 08:45:33;;;;;;;6.38;3.25;;;;;;;;;;5012701;28;20472;-89
2022/06/06 08:48:27;;;;;;;6.63;2.97;;;;;;;;;;5011560;28;20415;-90
2022/06/06 08:51:08;;;;;;;3.75;2.55;;;;;;;;;;5036214;28;20014;-86
2022/06/06 08:53:34;;;;;;;;;;;;;;;;;;5016449;28;20081;-89
2022/06/06 08:56:20;;;;;;;3.30;2.35;;;;;;;;;;5011820;28;20672;-90
2022/06/06 08:59:09;;;;;;;7.15;2.30;;;;;;;;;;5006273;28;20061;-89
2022/06/06 09:01:41;;;;;;;5.70;2.20;;;;;;;;;;4967613;28;20527;-89
2022/06/06 09:04:10;;;;;;;2.42;2.22;;;;;;;;;;4993933;28;20026;-86
2022/06/06 09:06:38;;;;;;;3.90;2.20;;;;;;;;;;5014501;28;20042;-88
2022/06/06 09:09:25;;;;;;;3.58;1.70;;;;;;;;;;5013960;28;20018;-88
2022/06/06 09:12:11;;;;;;;3.22;2.15;;;;;;;;;;5003163;28;20033;-90
2022/06/06 09:14:58;;;;;;;2.78;1.90;;;;;;;;;;5014906;28;20057;-89
2022/06/06 09:17:48;;;;;;;4.13;2.22;;;;;;;;;;5014060;28;20369;-88
2022/06/06 09:20:20;;;;;;;2.38;2.15;;;;;;;;;;5004259;28;20105;-90
2022/06/06 09:23:01;;;;;;;2.28;1.85;;;;;;;;;;4993988;28;20044;-90
2022/06/06 09:25:52;;;;;;;3.40;2.22;;;;;;;;;;5011187;28;20033;-89
2022/06/06 09:28:43;;;;;;;4.25;1.60;;;;;;;;;;5011338;28;20053;-88
2022/06/06 09:31:09;;;;;;;4.13;2.00;;;;;;;;;;4997089;28;20089;-88
2022/06/06 09:33:58;;;;;;;2.63;2.40;;;;;;;;;;5004531;28;20041;-88
2022/06/06 09:36:29;;;;;;;3.08;2.70;;;;;;;;;;5015534;28;20037;-89
2022/06/06 09:39:19;;;;;;;3.92;3.03;;;;;;;;;;5016096;28;20026;-88
2022/06/06 09:42:05;;;;;;;4.93;3.53;;;;;;;;;;5005307;28;20507;-88
2022/06/06 09:44:49;;;;;;;4.47;3.92;;;;;;;;;;4994127;28;20094;-88
2022/06/06 09:47:34;;;;;;;5.55;4.45;;;;;;;;;;4995860;28;20571;-90
2022/06/06 09:50:19;;;;;;;4.47;3.90;;;;;;;;;;5006645;28;20034;-90
2022/06/06 09:52:47;;;;;;;9.75;4.82;;;;;;;;;;5014537;28;20384;-89
2022/06/06 10:01:31;;;;;;;6.25;4.47;;;;;;;;;;4997577;28;20498;-89
2022/06/06 10:04:11;;;;;;;5.28;4.47;;;;;;;;;;4997534;28;20045;-87
2022/06/06 10:06:59;;;;;;;6.38;4.55;;;;;;;;;;4997264;28;20029;-90
2022/06/06 10:09:34;;;;;;;9.40;5.10;;;;;;;;;;4998706;28;20165;-90
2022/06/06 10:12:19;;;;;;;5.93;4.57;;;;;;;;;;5013993;28;20030;-89
2022/06/06 10:15:03;;;;;;;6.28;4.30;;;;;;;;;;4993794;28;20058;-88
2022/06/06 10:17:39;;;;;;;6.28;4.13;;;;;;;;;;4996407;28;20018;-90
2022/06/06 10:20:08;;;;;;;6.95;3.65;;;;;;;;;;5010170;28;20029;-90
2022/06/06 10:22:56;;;;;;;6.88;3.22;;;;;;;;;;5012397;28;20030;-85
2022/06/06 10:25:22;;;;;;;5.43;3.03;;;;;;;;;;4993234;28;20027;-86
2022/06/06 10:28:22;;;;;;;6.80;3.28;;;;;;;;;;5006462;28;20030;-88
2022/06/06 10:30:51;;;;;;;4.73;2.60;;;;;;;;;;5013210;28;20033;-88
2022/06/06 10:33:29;;;;;;;8.18;2.60;;;;;;;;;;5014861;28;20103;-88
2022/06/06 10:36:16;;;;;;;2.95;2.08;;;;;;;;;;5013482;28;20033;-87
2022/06/06 10:38:45;;;;;;;6.30;2.35;;;;;;;;;;5014386;28;20045;-87
2022/06/06 10:41:20;;;;;;;5.75;2.55;;;;;;;;;;5012862;28;20079;-89
2022/06/06 10:43:52;;;;;;;7.28;2.28;;;;;;;;;;5012939;28;20040;-88
2022/06/06 10:46:34;;;;;;;2.88;2.00;;;;;;;;;;5012429;28;20065;-86
2022/06/06 10:49:08;;;;;;;2.40;2.10;;;;;;;;;;5013003;28;20030;-90
2022/06/06 10:51:53;;;;;;;3.28;1.98;;;;;;;;;;5013328;28;20080;-90
2022/06/06 10:54:38;;;;;;;3.30;2.30;;;;;;;;;;5036695;28;20053;-87
2022/06/06 10:57:04;;;;;;;3.30;1.83;;;;;;;;;;5014503;28;20037;-88
2022/06/06 10:59:37;;;;;;;5.30;1.80;;;;;;;;;;5013564;28;20113;-88
2022/06/06 11:02:15;;;;;;;4.13;1.85;;;;;;;;;;5013424;28;20522;-87
2022/06/06 11:04:48;;;;;;;3.53;1.80;;;;;;;;;;5013949;28;20430;-87
2022/06/06 11:07:40;;;;;;;4.07;1.70;;;;;;;;;;5012639;28;20125;-87
2022/06/06 11:10:06;;;;;;;4.75;1.60;;;;;;;;;;5014441;28;20403;-88
2022/06/06 11:12:41;;;;;;;6.63;1.98;;;;;;;;;;5014120;28;20018;-89
2022/06/06 11:15:08;;;;;;;3.08;1.70;;;;;;;;;;5014320;28;20057;-88
2022/06/06 11:17:52;;;;;;;2.55;1.63;;;;;;;;;;5014989;28;20034;-90
2022/06/06 11:20:36;;;;;;;4.35;1.48;;;;;;;;;;5012874;28;20072;-88
2022/06/06 11:23:15;;;;;;;2.70;1.88;;;;;;;;;;5013764;28;20501;-87
2022/06/06 11:25:47;;;;;;;4.30;2.00;;;;;;;;;;5012002;28;20030;-88
2022/06/06 11:28:38;;;;;;;3.95;2.00;;;;;;;;;;5011574;28;20117;-88
2022/06/06 11:31:16;;;;;;;6.53;1.88;;;;;;;;;;5011379;28;20132;-89
2022/06/06 11:33:55;;;;;;;5.13;1.70;;;;;;;;;;5011703;28;20022;-88
2022/06/06 11:36:39;;;;;;;1.42;1.23;;;;;;;;;;5012877;28;20036;-87
2022/06/06 11:39:14;;;;;;;2.80;1.55;;;;;;;;;;5010397;28;20022;-88
2022/06/06 11:41:46;;;;;;;4.05;1.63;;;;;;;;;;5013014;28;20022;-88
2022/06/06 11:44:41;;;;;;;3.63;1.20;;;;;;;;;;5011565;28;20053;-87
2022/06/06 11:47:26;;;;;;;1.60;1.00;;;;;;;;;;4993378;28;20030;-88
2022/06/06 11:50:12;;;;;;;4.35;1.08;;;;;;;;;;5012377;28;20040;-88
2022/06/06 11:52:57;;;;;;;2.67;0.88;;;;;;;;;;5011752;28;20025;-87
2022/06/06 11:55:24;;;;;;;1.25;1.15;;;;;;;;;;5012680;28;20022;-88
2022/06/06 11:58:05;;;;;;;5.45;1.33;;;;;;;;;;5011706;28;20113;-88
2022/06/06 12:00:52;;;;;;;2.38;1.20;;;;;;;;;;5011078;28;20026;-88
2022/06/06 12:03:28;;;;;;;2.85;1.00;;;;;;;;;;5011266;28;20050;-88
2022/06/06 12:06:07;;;;;;;1.92;1.15;;;;;;;;;;5012177;28;20519;-88
2022/06/06 12:08:52;;;;;;;1.85;0.90;;;;;;;;;;5011200;28;20026;-89
2022/06/06 12:11:44;;;;;;;2.40;1.00;;;;;;;;;;5012867;28;20077;-88
2022/06/06 12:14:28;;;;;;;4.57;1.00;;;;;;;;;;5036456;28;20007;-85
2022/06/06 12:17:12;;;;;;;1.17;0.80;;;;;;;;;;5011338;28;20045;-88
2022/06/06 12:20:01;;;;;;;3.53;1.05;;;;;;;;;;5010879;28;20026;-88
2022/06/06 12:22:29;;;;;;;3.80;1.30;;;;;;;;;;5010651;28;20546;-89
2022/06/06 12:25:14;;;;;;;1.35;1.08;;;;;;;;;;5010691;28;20030;-89
2022/06/06 12:27:46;;;;;;;2.42;1.15;;;;;;;;;;5010408;28;20399;-88
2022/06/06 12:30:53;;;;;;;1.60;1.15;;;;;;;;;;5011673;28;20026;-88
2022/06/06 12:33:31;;;;;;;4.05;0.80;;;;;;;;;;5011047;28;20109;-87
2022/06/06 12:36:26;;;;;;;2.42;1.00;;;;;;;;;;5010801;28;20049;-88
2022/06/06 12:39:01;;;;;;;3.90;1.42;;;;;;;;;;5029136;28;20026;-88
2022/06/06 12:41:46;;;;;;;4.65;1.20;;;;;;;;;;5015254;28;20018;-87
2022/06/06 12:44:26;;;;;;;2.70;0.95;;;;;;;;;;5014354;28;20029;-87
2022/06/06 12:47:14;;;;;;;4.85;1.00;;;;;;;;;;5015457;28;20037;-89
2022/06/06 12:49:52;;;;;;;1.10;0.82;;;;;;;;;;5015566;28;20121;-88
2022/06/06 12:52:45;;;;;;;1.63;0.90;;;;;;;;;;5014507;28;20484;-89
2022/06/06 12:58:20;;;;;;;0.65;0.50;;;;;;;;;;5039373;28;20022;-89
2022/06/06 13:03:48;;;;;;;2.03;0.60;;;;;;;;;;5015762;28;20037;-89
2022/06/06 13:06:49;;;;;;;2.03;1.30;;;;;;;;;;5027610;23;20053;-91
2022/06/06 13:09:28;;;;;;;0.50;0.50;;;;;;;;;;4917669;29;20418;-91
2022/06/06 13:12:02;;;;;;;2.70;0.75;;;;;;;;;;4987487;28;20050;-91
2022/06/06 13:14:37;;;;;;;2.47;0.60;;;;;;;;;;4995669;28;20515;-91
2022/06/06 13:17:04;;;;;;;0.93;0.77;;;;;;;;;;4992478;28;20039;-89
2022/06/06 13:19:56;;;;;;;2.00;1.00;;;;;;;;;;4976757;28;20048;-92
2022/06/06 13:22:31;;;;;;;1.05;0.80;;;;;;;;;;4974996;28;20089;-91
2022/06/06 13:24:59;;;;;;;1.40;0.40;;;;;;;;;;4976671;28;20071;-91
2022/06/06 13:27:29;;;;;;;3.03;0.80;;;;;;;;;;4986436;28;20397;-92
2022/06/06 13:29:59;;;;;;;4.03;0.60;;;;;;;;;;4976565;28;20077;-91
2022/06/06 13:32:31;;;;;;;1.48;0.60;;;;;;;;;;4977100;28;20049;-91
2022/06/06 13:35:07;;;;;;;0.77;0.55;;;;;;;;;;4975367;28;20030;-91
2022/06/06 13:37:39;;;;;;;6.53;0.85;;;;;;;;;;4975218;28;20034;-90
2022/06/06 13:40:08;;;;;;;1.15;0.55;;;;;;;;;;4975006;28;20023;-92
2022/06/06 13:42:37;;;;;;;1.95;0.43;;;;;;;;;;4991492;28;20031;-90
2022/06/06 13:45:10;;;;;;;2.55;0.60;;;;;;;;;;4991124;28;20057;-91
2022/06/06 13:47:39;;;;;;;0.98;0.60;;;;;;;;;;4976259;28;20034;-91
2022/06/06 13:50:18;;;;;;;1.85;0.30;;;;;;;;;;4989541;28;20073;-92
2022/06/06 13:52:48;;;;;;;2.10;0.60;;;;;;;;;;4976341;28;20063;-91
2022/06/06 13:55:26;;;;;;;4.72;0.70;;;;;;;;;;4976039;28;20031;-90
2022/06/06 13:58:10;;;;;;;2.17;0.60;;;;;;;;;;4975572;28;20027;-92
2022/06/06 14:00:53;;;;;;;1.88;0.40;;;;;;;;;;4991279;28;20023;-91
2022/06/06 14:03:31;;;;;;;1.20;0.50;;;;;;;;;;4994078;28;20023;-90
2022/06/06 14:06:09;;;;;;;1.80;0.77;;;;;;;;;;4996171;28;20567;-92
2022/06/06 14:08:47;;;;;;;1.25;0.50;;;;;;;;;;4976279;28;20031;-90
2022/06/06 14:11:19;;;;;;;0.55;0.50;;;;;;;;;;4990771;28;20031;-91
2022/06/06 14:13:50;;;;;;;0.80;0.55;;;;;;;;;;4990779;28;20026;-92
2022/06/06 14:16:16;;;;;;;;;;;;;;;;;;4991170;28;20027;-91
2022/06/06 14:18:42;;;;;;;2.05;1.02;;;;;;;;;;4990329;28;20295;-92
2022/06/06 14:21:08;;;;;;;0.80;0.40;;;;;;;;;;4990417;28;20052;-92
2022/06/06 14:23:35;;;;;;;0.90;0.50;;;;;;;;;;4975528;28;20030;-92
2022/06/06 14:26:06;;;;;;;1.42;0.60;;;;;;;;;;4990434;28;20031;-92
2022/06/06 14:28:36;;;;;;;1.20;0.50;;;;;;;;;;4989258;28;20046;-91
2022/06/06 14:31:19;;;;;;;3.10;0.60;;;;;;;;;;4983964;28;20493;-91
2022/06/06 14:33:53;;;;;;;0.80;0.50;;;;;;;;;;4988008;28;20444;-91
2022/06/06 14:36:21;;;;;;;1.00;0.50;;;;;;;;;;4957129;28;20032;-93
2022/06/06 14:38:57;;;;;;;0.95;0.43;;;;;;;;;;4978357;28;20023;-91
2022/06/06 14:41:35;;;;;;;2.55;0.40;;;;;;;;;;5005953;28;20038;-94
2022/06/06 14:44:03;;;;;;;0.73;0.40;;;;;;;;;;4996599;28;20062;-93
2022/06/06 14:46:44;;;;;;;3.47;0.55;;;;;;;;;;4995686;28;20027;-93
2022/06/06 14:49:10;;;;;;;;;;;;;;;;;;4997444;28;20037;-91
2022/06/06 14:51:43;;;;;;;0.77;0.40;;;;;;;;;;4998866;28;20000;-91
2022/06/06 14:54:12;;;;;;;1.75;0.40;;;;;;;;;;5013214;28;20022;-91
2022/06/06 14:56:59;;;;;;;1.63;0.60;;;;;;;;;;5013066;28;20431;-92
2022/06/06 14:59:43;;;;;;;0.60;0.52;;;;;;;;;;5010801;28;20022;-90
2022/06/06 15:02:15;;;;;;;0.93;0.47;;;;;;;;;;5011944;28;20562;-92
2022/06/06 15:04:42;;;;;;;3.95;0.65;;;;;;;;;;4994447;28;20026;-92
2022/06/06 15:07:09;;;;;;;0.70;0.50;;;;;;;;;;5006015;28;20034;-94
2022/06/06 15:09:42;;;;;;;0.57;0.57;;;;;;;;;;4979414;28;20022;-91
2022/06/06 15:12:35;;;;;;;2.55;0.80;;;;;;;;;;4985117;28;20023;-93
2022/06/06 15:15:05;;;;;;;1.02;0.60;;;;;;;;;;4981225;28;20058;-92
2022/06/06 15:17:33;;;;;;;1.00;0.70;;;;;;;;;;5017786;28;20030;-93
2022/06/06 15:20:03;;;;;;;4.50;0.60;;;;;;;;;;5003929;28;20090;-92
2022/06/06 15:22:41;;;;;;;5.15;0.75;;;;;;;;;;5001574;28;20026;-93
2022/06/06 15:25:14;;;;;;;8.55;0.80;;;;;;;;;;4977808;28;20031;-91
2022/06/06 15:27:49;;;;;;;2.10;0.70;;;;;;;;;;4999023;28;20031;-93
2022/06/06 15:30:19;;;;;;;0.95;0.40;;;;;;;;;;5002485;28;20050;-93
2022/06/06 15:33:15;;;;;;;1.45;0.50;;;;;;;;;;5003048;28;20023;-92
2022/06/06 15:35:52;;;;;;;5.13;0.60;;;;;;;;;;4971582;28;20042;-92
2022/06/06 15:38:41;;;;;;;;;;;;;;;;;;;;;
2022/06/06 15:41:20;;;;;;;2.00;0.35;;;;;;;;;;4968597;28;20576;-92
2022/06/06 15:43:46;;;;;;;4.25;0.70;;;;;;;;;;4987923;28;20037;-91
2022/06/06 15:46:19;;;;;;;4.00;0.80;;;;;;;;;;5013039;28;20049;-91
2022/06/06 15:49:05;;;;;;;3.65;0.77;;;;;;;;;;5011627;28;20026;-94
2022/06/06 15:51:52;;;;;;;4.10;0.65;;;;;;;;;;5049644;23;20034;-92
2022/06/06 15:54:49;;;;;;;1.05;0.63;;;;;;;;;;5037652;28;20033;-92
2022/06/06 15:57:15;;;;;;;2.25;0.65;;;;;;;;;;4989493;28;20038;-92
2022/06/06 16:00:04;;;;;;;1.45;0.60;;;;;;;;;;5012331;28;20025;-93
2022/06/06 16:02:41;;;;;;;2.47;0.77;;;;;;;;;;5029971;28;20014;-91
2022/06/06 16:05:21;;;;;;;2.03;0.70;;;;;;;;;;4992828;28;20010;-92